createdAt,value
2023-04-05T00:00:12.627Z,47.22
2023-04-05T00:04:14.831Z,47.36
2023-04-05T00:08:24.142Z,47.47
2023-04-05T00:12:24.712Z,48.00
2023-04-05T00:16:27.922Z,48.71
2023-04-05T00:20:29.508Z,49.21
2023-04-05T00:24:31.356Z,49.24
2023-04-05T00:28:32.021Z,50.39
2023-04-05T00:32:35.652Z,50.33
2023-04-05T00:36:36.031Z,50.34
2023-04-05T00:40:36.654Z,50.69
2023-04-05T00:44:37.832Z,50.48
2023-04-05T00:48:42.542Z,51.10
2023-04-05T00:52:43.751Z,50.85
2023-04-05T00:56:45.905Z,51.01
2023-04-05T01:00:59.661Z,50.97
2023-04-05T01:05:12.043Z,50.77
2023-04-05T01:09:32.542Z,51.15
2023-04-05T01:13:33.616Z,51.75
2023-04-05T01:17:37.152Z,51.96
2023-04-05T01:22:14.419Z,51.79
2023-04-05T01:27:02.473Z,51.88
2023-04-05T01:31:11.700Z,52.47
2023-04-05T01:35:24.817Z,52.72
2023-04-05T01:39:27.390Z,53.02
2023-04-05T01:43:29.046Z,53.34
2023-04-05T01:47:32.402Z,53.51
2023-04-05T01:51:33.454Z,53.53
2023-04-05T01:55:34.156Z,53.55
2023-04-05T01:59:36.604Z,53.13
2023-04-05T02:03:39.774Z,53.38
2023-04-05T02:07:40.290Z,53.99
2023-04-05T02:11:40.898Z,54.75
2023-04-05T02:15:41.238Z,54.51
2023-04-05T02:19:47.169Z,54.67
2023-04-05T02:23:47.500Z,54.76
2023-04-05T02:27:48.585Z,55.21
2023-04-05T02:31:49.374Z,54.84
2023-04-05T02:35:56.644Z,55.27
2023-04-05T02:39:57.166Z,54.88
2023-04-05T02:43:58.012Z,55.04
2023-04-05T02:47:58.553Z,55.21
2023-04-05T02:52:03.177Z,55.21
2023-04-05T02:56:03.933Z,55.54
2023-04-05T03:00:09.146Z,55.38
2023-04-05T03:04:09.678Z,55.26
2023-04-05T03:08:19.016Z,55.39
2023-04-05T03:12:30.632Z,55.10
2023-04-05T03:16:31.509Z,55.59
2023-04-05T03:20:40.401Z,55.66
2023-04-05T03:24:51.061Z,55.87
2023-04-05T03:28:53.015Z,55.80
2023-04-05T03:33:01.464Z,55.62
2023-04-05T03:37:18.062Z,55.52
2023-04-05T03:41:26.410Z,55.99
2023-04-05T03:45:27.385Z,56.55
2023-04-05T03:49:27.828Z,56.57
2023-04-05T03:53:29.760Z,56.91
2023-04-05T03:57:35.960Z,57.39
2023-04-05T04:01:46.527Z,57.62
2023-04-05T04:05:48.573Z,58.43
2023-04-05T04:09:49.224Z,57.99
2023-04-05T04:13:53.305Z,57.63
2023-04-05T04:17:59.510Z,58.28
2023-04-05T04:22:20.996Z,58.63
2023-04-05T04:26:41.198Z,57.78
2023-04-05T04:31:05.264Z,58.19
2023-04-05T04:35:28.172Z,57.57
2023-04-05T04:39:36.157Z,58.62
2023-04-05T04:44:05.731Z,58.13
2023-04-05T04:48:19.052Z,57.92
2023-04-05T04:52:29.342Z,58.09
2023-04-05T04:56:30.080Z,58.46
2023-04-05T05:00:32.278Z,58.07
2023-04-05T05:04:37.941Z,58.09
2023-04-05T05:08:38.510Z,58.02
2023-04-05T05:12:39.006Z,60.56
2023-04-05T05:16:39.538Z,60.01
2023-04-05T05:20:43.456Z,59.90
2023-04-05T05:24:44.443Z,59.52
2023-04-05T05:28:46.316Z,59.81
2023-04-05T05:32:46.803Z,60.46
2023-04-05T05:36:50.053Z,59.80
2023-04-05T05:40:50.670Z,59.09
2023-04-05T05:44:51.112Z,58.83
2023-04-05T05:48:51.682Z,59.66
2023-04-05T05:52:54.944Z,59.83
2023-04-05T05:56:59.546Z,60.11
2023-04-05T06:01:00.055Z,60.53
2023-04-05T06:05:02.348Z,60.63
2023-04-05T06:09:06.416Z,60.05
2023-04-05T06:13:06.811Z,59.24
2023-04-05T06:17:07.115Z,58.09
2023-04-05T06:21:07.594Z,57.41
2023-04-05T06:25:13.270Z,55.15
2023-04-05T06:29:13.660Z,54.92
2023-04-05T06:33:13.969Z,53.83
2023-04-05T06:37:14.536Z,52.98
2023-04-05T06:41:17.690Z,50.33
2023-04-05T06:45:21.025Z,48.46
2023-04-05T06:49:21.497Z,47.03
2023-04-05T06:53:21.867Z,47.18
2023-04-05T06:57:24.935Z,45.84
2023-04-05T07:01:26.492Z,44.78
2023-04-05T07:05:27.105Z,44.29
2023-04-05T07:09:29.466Z,42.64
2023-04-05T07:13:32.851Z,43.08
2023-04-05T07:17:33.432Z,42.69
2023-04-05T07:21:33.946Z,41.81
2023-04-05T07:25:35.420Z,41.04
2023-04-05T07:29:41.013Z,40.16
2023-04-05T07:33:41.642Z,40.26
2023-04-05T07:37:42.082Z,39.68
2023-04-05T07:41:43.272Z,39.04
2023-04-05T07:45:46.563Z,38.97
2023-04-05T07:49:47.065Z,37.98
2023-04-05T07:53:47.544Z,37.50
2023-04-05T07:57:48.095Z,36.79
2023-04-05T08:01:51.575Z,36.22
2023-04-05T08:05:54.741Z,36.28
2023-04-05T08:09:57.791Z,34.30
2023-04-05T08:13:58.300Z,33.87
2023-04-05T08:18:01.473Z,33.37
2023-04-05T08:22:01.866Z,32.43
2023-04-05T08:26:03.850Z,31.01
2023-04-05T08:30:04.454Z,31.54
2023-04-05T08:34:11.101Z,30.15
2023-04-05T08:38:12.441Z,29.99
2023-04-05T08:42:20.016Z,29.79
2023-04-05T08:46:23.744Z,29.81
2023-04-05T08:50:28.215Z,28.60
2023-04-05T08:54:31.573Z,28.57
2023-04-05T08:58:34.468Z,27.77
2023-04-05T09:02:36.546Z,29.20
2023-04-05T09:06:40.409Z,29.86
2023-04-05T09:10:41.178Z,28.66
2023-04-05T09:14:46.463Z,26.32
2023-04-05T09:18:49.509Z,25.71
2023-04-05T09:22:52.619Z,25.68
2023-04-05T09:27:08.526Z,26.82
2023-04-05T09:31:10.651Z,25.34
2023-04-05T09:35:22.857Z,25.54
2023-04-05T09:39:33.165Z,25.52
2023-04-05T09:43:43.109Z,23.56
2023-04-05T09:51:50.016Z,23.88
2023-04-05T09:55:53.704Z,24.96
2023-04-05T09:59:57.687Z,24.64
2023-04-05T10:04:02.959Z,25.23
2023-04-05T10:08:07.215Z,25.17
2023-04-05T10:12:12.077Z,27.24
2023-04-05T10:16:24.206Z,26.30
2023-04-05T10:20:27.012Z,24.85
2023-04-05T10:24:47.238Z,25.38
2023-04-05T10:28:55.490Z,25.72
2023-04-05T10:33:19.975Z,25.20
2023-04-05T10:37:39.663Z,24.17
2023-04-05T10:41:46.284Z,22.77
2023-04-05T10:45:55.010Z,22.71
2023-04-05T10:50:03.237Z,23.22
2023-04-05T10:54:05.344Z,24.37
2023-04-05T10:58:07.543Z,23.29
2023-04-05T11:02:12.572Z,22.28
2023-04-05T11:06:35.707Z,22.05
2023-04-05T11:10:39.943Z,22.74
2023-04-05T11:14:43.674Z,21.41
2023-04-05T11:18:52.283Z,21.46
2023-04-05T11:22:58.066Z,20.74
2023-04-05T11:27:01.930Z,20.37
2023-04-05T11:31:19.616Z,20.27
2023-04-05T11:35:26.061Z,19.90
2023-04-05T11:39:31.179Z,20.44
2023-04-05T11:43:34.785Z,21.07
2023-04-05T11:47:41.331Z,21.25
2023-04-05T11:51:49.230Z,22.61
2023-04-05T11:55:55.546Z,23.40
2023-04-05T11:59:56.954Z,23.93
2023-04-05T12:03:59.174Z,24.09
2023-04-05T12:08:03.308Z,25.33
2023-04-05T12:12:03.780Z,23.92
2023-04-05T12:16:06.434Z,23.67
2023-04-05T12:20:08.599Z,22.85
2023-04-05T12:24:13.427Z,20.04
2023-04-05T12:28:13.913Z,19.64
2023-04-05T12:32:14.797Z,19.90
2023-04-05T12:36:18.693Z,18.43
2023-04-05T12:40:25.585Z,17.10
2023-04-05T12:44:34.844Z,17.25
2023-04-05T12:48:35.347Z,18.45
2023-04-05T12:52:37.473Z,19.67
2023-04-05T12:56:42.313Z,20.08
2023-04-05T13:00:42.710Z,19.21
2023-04-05T13:04:43.523Z,19.51
2023-04-05T13:08:43.881Z,17.64
2023-04-05T13:12:47.331Z,17.30
2023-04-05T13:16:47.655Z,15.63
2023-04-05T13:20:49.529Z,15.26
2023-04-05T13:24:52.118Z,15.73
2023-04-05T13:28:55.174Z,16.63
2023-04-05T13:32:55.772Z,17.07
2023-04-05T13:36:56.404Z,16.67
2023-04-05T13:40:56.872Z,17.66
2023-04-05T13:45:00.107Z,18.55
2023-04-05T13:49:02.240Z,17.06
2023-04-05T13:53:02.658Z,17.95
2023-04-05T13:57:03.704Z,17.94
2023-04-05T14:01:06.937Z,17.58
2023-04-05T14:05:08.342Z,19.79
2023-04-05T14:09:08.787Z,18.50
2023-04-05T14:13:13.471Z,17.55
2023-04-05T14:17:16.923Z,16.48
2023-04-05T14:21:17.380Z,16.01
2023-04-05T14:25:18.242Z,15.78
2023-04-05T14:29:19.088Z,15.61
2023-04-05T14:33:22.291Z,16.08
2023-04-05T14:37:22.757Z,17.32
2023-04-05T14:41:27.262Z,16.88
2023-04-05T14:45:28.902Z,16.16
2023-04-05T14:49:32.792Z,16.53
2023-04-05T14:53:34.224Z,16.89
2023-04-05T14:57:34.668Z,18.28
2023-04-05T15:01:35.451Z,19.71
2023-04-05T15:05:39.082Z,20.65
2023-04-05T15:09:39.713Z,21.51
2023-04-05T15:13:40.468Z,22.59
2023-04-05T15:17:41.511Z,22.60
2023-04-05T15:21:44.746Z,23.02
2023-04-05T15:25:46.359Z,20.83
2023-04-05T15:29:48.932Z,19.47
2023-04-05T15:33:53.081Z,20.74
2023-04-05T15:37:57.065Z,21.33
2023-04-05T15:42:01.848Z,22.28
2023-04-05T15:46:02.260Z,22.53
2023-04-05T15:50:02.895Z,22.81
2023-04-05T15:54:07.032Z,23.03
2023-04-05T15:58:07.795Z,23.54
2023-04-05T16:02:10.727Z,23.88
2023-04-05T16:06:11.776Z,23.64
2023-04-05T16:10:15.546Z,24.05
2023-04-05T16:14:18.070Z,24.27
2023-04-05T16:18:20.480Z,24.76
2023-04-05T16:22:21.265Z,24.76
2023-04-05T16:26:25.159Z,24.93
2023-04-05T16:30:26.242Z,24.93
2023-04-05T16:34:26.959Z,24.10
2023-04-05T16:38:27.897Z,23.80
2023-04-05T16:42:33.607Z,23.46
2023-04-05T16:46:34.333Z,23.12
2023-04-05T16:50:36.267Z,22.78
2023-04-05T16:54:37.166Z,22.56
2023-04-05T16:58:41.334Z,22.66
2023-04-05T17:02:41.780Z,22.90
2023-04-05T17:06:43.311Z,24.00
2023-04-05T17:10:43.716Z,24.66
2023-04-05T17:14:49.656Z,25.17
2023-04-05T17:18:50.168Z,25.72
2023-04-05T17:22:51.810Z,26.62
2023-04-05T17:26:52.350Z,27.13
2023-04-05T17:30:57.193Z,27.78
2023-04-05T17:34:58.024Z,31.41
2023-04-05T17:38:59.855Z,31.96
2023-04-05T17:43:01.047Z,30.57
2023-04-05T17:47:09.050Z,30.64
2023-04-05T17:51:15.791Z,30.97
2023-04-05T17:55:17.133Z,31.49
2023-04-05T17:59:18.987Z,32.03
2023-04-05T18:03:25.327Z,32.38
2023-04-05T18:07:29.665Z,32.36
2023-04-05T18:11:30.126Z,33.85
2023-04-05T18:15:30.876Z,33.96
2023-04-05T18:19:35.312Z,34.01
2023-04-05T18:23:37.149Z,35.12
2023-04-05T18:27:37.765Z,35.37
2023-04-05T18:31:38.694Z,36.18
2023-04-05T18:35:44.136Z,36.84
2023-04-05T18:39:46.373Z,37.59
2023-04-05T18:43:48.319Z,37.80
2023-04-05T18:47:49.232Z,38.88
2023-04-05T18:51:53.294Z,38.38
2023-04-05T18:55:55.839Z,38.81
2023-04-05T18:59:56.224Z,39.49
2023-04-05T19:03:57.548Z,40.07
2023-04-05T19:08:01.046Z,40.04
2023-04-05T19:12:01.606Z,40.35
2023-04-05T19:16:02.559Z,40.73
2023-04-05T19:20:04.399Z,41.25
2023-04-05T19:24:10.001Z,41.49
2023-04-05T19:28:11.980Z,41.88
2023-04-05T19:32:13.123Z,41.76
2023-04-05T19:36:13.785Z,42.45
2023-04-05T19:40:17.120Z,43.08
2023-04-05T19:44:41.365Z,43.42
2023-04-05T19:48:43.565Z,43.65
2023-04-05T19:52:51.046Z,43.99
2023-04-05T19:56:55.010Z,44.58
2023-04-05T20:00:56.512Z,45.22
2023-04-05T20:04:59.276Z,45.21
2023-04-05T20:09:07.931Z,44.62
2023-04-05T20:13:12.387Z,44.92
2023-04-05T20:17:16.689Z,45.27
2023-04-05T20:21:19.764Z,45.54
2023-04-05T20:25:40.755Z,45.22
2023-04-05T20:29:43.930Z,45.75
2023-04-05T20:34:00.253Z,45.56
2023-04-05T20:38:01.790Z,45.29
2023-04-05T20:42:03.985Z,46.11
2023-04-05T20:46:09.610Z,47.22
2023-04-05T20:50:13.215Z,47.21
2023-04-05T20:54:14.353Z,47.87
2023-04-05T20:58:17.140Z,47.83
2023-04-05T21:02:22.776Z,48.27
2023-04-05T21:06:23.343Z,48.54
2023-04-05T21:10:25.020Z,48.77
2023-04-05T21:14:25.374Z,49.50
2023-04-05T21:18:30.938Z,49.77
2023-04-05T21:22:32.573Z,50.46
2023-04-05T21:26:33.129Z,50.58
2023-04-05T21:30:33.561Z,50.99
2023-04-05T21:34:38.597Z,50.85
2023-04-05T21:38:38.969Z,51.16
2023-04-05T21:42:39.696Z,50.94
2023-04-05T21:46:40.212Z,51.06
2023-04-05T21:50:43.621Z,51.09
2023-04-05T21:54:44.142Z,51.09
2023-04-05T21:58:45.003Z,51.19
2023-04-05T22:02:47.027Z,51.80
2023-04-05T22:06:50.260Z,51.96
2023-04-05T22:10:50.597Z,51.75
2023-04-05T22:14:51.144Z,51.78
2023-04-05T22:18:51.455Z,52.07
2023-04-05T22:22:54.328Z,51.63
2023-04-05T22:26:56.891Z,52.11
2023-04-05T22:30:57.877Z,52.10
2023-04-05T22:34:58.653Z,52.02
2023-04-05T22:39:02.182Z,52.46
2023-04-05T22:43:02.608Z,52.81
2023-04-05T22:47:03.539Z,52.68
2023-04-05T22:51:04.430Z,52.66
2023-04-05T22:55:09.167Z,52.60
2023-04-05T22:59:09.781Z,52.39
2023-04-05T23:03:10.445Z,52.62
2023-04-05T23:07:10.911Z,52.61
2023-04-05T23:11:13.859Z,52.68
2023-04-05T23:15:15.360Z,53.37
2023-04-05T23:19:16.769Z,53.24
2023-04-05T23:23:17.364Z,53.17
2023-04-05T23:27:21.426Z,53.18
2023-04-05T23:31:22.047Z,53.19
2023-04-05T23:35:22.739Z,53.05
2023-04-05T23:39:23.182Z,53.27
2023-04-05T23:43:26.369Z,53.76
2023-04-05T23:47:26.797Z,53.47
2023-04-05T23:51:27.343Z,54.25
2023-04-05T23:55:27.677Z,54.25
2023-04-05T23:59:31.089Z,54.22
